Grazzanise, Italy

8:03 PM CET on December 18, 2014 (GMT +0100)
Caserta | Change Station
CLOSE
Current Station
Personal Weather Station
Location: Pignataro Maggiore, CASERTA
Elevation: 292 ft
Nearby Weather Stations

Elev 292 ft 41.19 °N, 14.17 °E | Updated 2 minutes ago

Clear
Clear
54.5 °F
Feels Like 54.5 °F
N
3.1
Wind Variable Wind from ENE
Gusts 3.1 mph

Today
High -- | Low -- °F
--% Chance of Precip.
Yesterday
High -- | Low -- °F
Precip. -- in
7:23 AM 4:37 PM
Waning Crescent, 13% visible
Pressure 30.15 in
Visibility -9999.0 miles
Clouds
Dew Point 32 °F
Humidity 43%
Rainfall -999.00 in
Snow Depth Not available.
UV Not available.
Pollen Not available.
Air Quality Not available.
Flu Activity Not available.
METAR LIRN 181850Z 36003KT 280V060 CAVOK 12/07 Q1021

More Conditions Fewer Conditions

Pressure 30.15 in
Visibility -9999.0 miles
Clouds
Dew Point 32 °F
Humidity 43%
Rainfall -999.00 in
Snow Depth Not available.
UV Not available.
Pollen Not available.
Air Quality Not available.
Flu Activity Not available.
METAR LIRN 181850Z 36003KT 280V060 CAVOK 12/07 Q1021

More Conditions Fewer Conditions

10-Day Weather Forecast

Almanac

Astronomy

Dec. 18, 2014 Rise Set
Actual Time
Civil Twilight
Nautical Twilight
Astronomical Twilight
Moon
Length of Visible Light
Length of Day
Tomorrow will be .
, % of the Moon is Illuminated

Today's Extremes

Country Highs Country Lows

Community

WunderPhotos

Upload Photos

1,778,982 photos uploaded!

WunderBlogs® & News

Nearby

Air Quality

  Air Quality AQ Index Pollutant
Not available.

Snow Depth

Station Depth Elevation

Earthquake Activity

City Distance Mag. Time & Date
Minimum magnitude displayed is 2.5.

Coastal Water Temperatures

Place Temperature

Nearby Weather Stations